• Join FlightAware (Why Join?)
  • Login
  • US Flag 
07:15AM EDT


 

Airport Tracker/Info


-or-


 

Live Flight TrackerFlight Track Log ✈ UAL3821 ✈ 29-Apr-2014 ✈ KRDU - KEWR

Flight Track Log - Related Links

Times and Time Zones

All times are in EDT time to prevent confusion due to time zone crossing. See the UAL3821 flight status page for this flight to view local times or setup timezone preferences in your user account.

Time Position Orientation Groundspeed Altitude Reporting Facility
EDT Latitude Longitude Course Direction KTS MPH feet Rate Location/Type
10:28PM 35.8497 -78.8183 11° North 164 189 1,600  Level Washington Center
10:29PM 35.8336 -78.8739 250° West 205 236 3,400 1,980 Climbing Washington Center
10:30PM 35.8314 -78.9558 268° West 253 291 5,700 2,280 Climbing Washington Center
10:31PM 35.8289 -79.0403 268° West 255 293 8,100 2,220 Climbing Washington Center
10:32PM 35.8450 -79.1281 283° West 271 312 10,300 1,680 Climbing Washington Center
10:33PM 36.3019 -78.6160 15° North  Level FlightAware Approximate
10:33PM 35.8761 -79.2089 295° West 292 336 11,500  Level Washington Center
10:34PM 36.3911 -78.5897 11° North  Level FlightAware Approximate
10:34PM 35.9736 -79.2264 352° North 286 329 13,400  Level Washington Center
10:35PM 36.0644 -79.1944 16° North 343 395 14,000 300 Climbing Washington Center
10:36PM 36.1431 -79.0719 52° Northeast 359 413 14,000  Level Washington Center
10:37PM 36.2067 -78.9642 54° Northeast 393 452 14,000 540 Level Washington Center
10:38PM 36.2811 -78.8333 55° Northeast 420 483 15,100 1,380 Climbing Washington Center
10:39PM 36.3447 -78.7175 56° Northeast 419 482 16,800 1,380 Climbing Washington Center
10:40PM 36.4078 -78.6192 51° Northeast 414 476 17,900 1,140 Climbing Washington Center
10:41PM 36.5053 -78.5611 26° Northeast 389 448 19,100 1,140 Climbing Washington Center
10:42PM 36.6147 -78.5211 16° North 382 440 20,300 1,200 Climbing Washington Center
10:43PM 36.7222 -78.4786 18° North 394 453 21,500 1,260 Climbing Washington Center
10:44PM 36.8347 -78.3972 30° Northeast 399 459 22,800 1,200 Climbing Washington Center
10:45PM 36.9325 -78.3150 34° Northeast 415 478 24,000 1,140 Climbing Washington Center
10:46PM 37.0367 -78.2275 34° Northeast 430 495 25,200 1,140 Climbing Washington Center
10:47PM 37.1325 -78.1422 35° Northeast 430 495 26,300 1,140 Climbing Washington Center
10:48PM 37.2322 -78.0544 35° Northeast 430 495 27,500 1,080 Climbing Washington Center
10:49PM 37.3319 -77.9714 34° Northeast 430 495 28,500 720 Climbing Washington Center
10:50PM 37.4319 -77.8803 36° Northeast 430 495 29,000 240 Climbing Washington Center
10:51PM 37.5378 -77.7892 34° Northeast 441 507 29,000  Level Washington Center
10:52PM 37.6458 -77.6953 35° Northeast 458 527 29,000  Level Washington Center
10:53PM 37.7581 -77.5958 35° Northeast 477 549 29,000  Level Washington Center
10:54PM 37.8703 -77.4964 35° Northeast 482 555 29,000  Level Washington Center
10:55PM 37.9825 -77.3939 36° Northeast 488 562 29,000  Level Washington Center
10:56PM 38.0839 -77.3064 34° Northeast 488 562 29,000  Level Washington Center
10:57PM 38.1978 -77.2061 35° Northeast 488 562 29,000  Level Washington Center
10:58PM 38.3117 -77.1028 35° Northeast 502 578 29,000  Level Washington Center
10:59PM 38.4236 -76.9989 36° Northeast 495 570 29,000  Level Washington Center
11:00PM 38.5372 -76.8975 35° Northeast 495 570 29,000  Level Washington Center
11:01PM 38.6508 -76.7933 36° Northeast 495 570 29,000  Level Washington Center
11:02PM 38.7603 -76.6831 38° Northeast 500 575 29,000  Level Washington Center
11:03PM 38.8636 -76.5619 42° Northeast 495 570 29,000  Level Washington Center
11:04PM 38.9686 -76.4458 41° Northeast 500 575 29,000 -60 Level Washington Center
11:05PM 39.0675 -76.3294 42° Northeast 487 560 28,900 -420 Descending Washington Center
11:06PM 39.1681 -76.2100 43° Northeast 481 554 28,200 -900 Descending Washington Center
11:07PM 39.2769 -76.0850 42° Northeast 481 554 27,100 -1,080 Descending Washington Center
11:08PM 39.3692 -75.9756 43° Northeast 462 532 26,100 -960 Descending Washington Center
11:09PM 39.4633 -75.8631 43° Northeast 455 524 25,200 -960 Descending Washington Center
11:10PM 39.5592 -75.7531 41° Northeast 455 524 24,200 -1,020 Descending Washington Center
11:11PM 39.6553 -75.6400 42° Northeast 455 524 23,300 -1,680 Descending Washington Center
11:12PM 39.7469 -75.5267 44° Northeast 455 524 20,900 -2,520 Descending Washington Center
11:13PM 39.8342 -75.4211 43° Northeast 445 512 18,300 -2,400 Descending Washington Center
11:14PM 39.9217 -75.3211 41° Northeast 434 499 16,200 -1,980 Descending Washington Center
11:15PM 39.9964 -75.2231 45° Northeast 423 487 14,300 -2,040 Descending Washington Center
11:16PM 40.0772 -75.1253 43° Northeast 411 473 12,200 -1,620 Descending Washington Center
11:18PM 40.1667 -75.0167 43° Northeast 333 383 11,000 -1,020 Descending New York TRACON
11:19PM 40.2167 -74.9333 52° Northeast 323 372 10,100 -960 Descending New York TRACON
11:19PM 40.2667 -74.8333 57° Northeast 318 366 9,200 -1,020 Descending New York TRACON
11:20PM 40.3000 -74.7333 66° East 301 346 8,200 -1,080 Descending New York TRACON
11:22PM 40.3500 -74.6500 52° Northeast 288 331 7,000 -1,080 Descending New York TRACON
11:22PM 40.3833 -74.5667 62° Northeast 284 327 6,100 -1,020 Descending New York TRACON
11:23PM 40.4167 -74.4833 62° Northeast 255 293 5,100 -1,080 Descending New York TRACON
11:25PM 40.4667 -74.4000 52° Northeast 242 278 3,900 -1,140 Descending New York TRACON
11:25PM 40.5000 -74.3333 57° Northeast 241 277 2,900 -540 Descending New York TRACON
11:26PM 40.5333 -74.2667 57° Northeast 222 255 2,900 -300 Level New York TRACON
11:27PM 40.5833 -74.2333 27° Northeast 208 239 2,300 -780 Descending New York TRACON
11:28PM 40.6167 -74.2000 37° Northeast 129 148 1,400 -840 Descending New York TRACON
11:29PM 40.6500 -74.1833 21° North 121 139 700 -720 Descending New York TRACON